Time;durP1;ratioP1;P1;durP2;ratioP2;P2;SDS_P1;SDS_P2;PMS_P1;PMS_P2;Temp;Humidity;BMP_temperature;BMP_pressure;BME280_temperature;BME280_humidity;BME280_pressure;Samples;Min_cycle;Max_cycle;Signal;HPM_P1;HPM_P2
2022/01/18 00:00:10;;;;;;;82.57;36.97;;;;;;;4.60;84.14;103579.78;3589458;39;20048;-66
2022/01/18 00:02:38;;;;;;;78.05;31.50;;;;;;;4.65;84.53;103574.47;3585685;39;20392;-66
2022/01/18 00:05:06;;;;;;;72.90;32.30;;;;;;;4.73;84.86;103580.75;3588698;39;20072;-65
2022/01/18 00:07:31;;;;;;;83.70;38.78;;;;;;;4.71;84.79;103571.84;3585140;39;20071;-65
2022/01/18 00:09:57;;;;;;;71.47;32.75;;;;;;;4.85;84.56;103582.59;3581301;40;20056;-65
2022/01/18 00:20:56;;;;;;;49.95;20.40;;;;;;;5.14;85.31;103593.44;3585082;39;20040;-65
2022/01/18 00:23:23;;;;;;;38.50;16.13;;;;;;;5.19;84.98;103586.34;3585346;39;20044;-65
2022/01/18 00:25:53;;;;;;;44.65;15.60;;;;;;;5.22;84.79;103589.03;3586874;39;20398;-65
2022/01/18 00:28:23;;;;;;;42.80;15.80;;;;;;;5.10;84.59;103570.28;3586497;39;20122;-65
2022/01/18 00:36:22;;;;;;;40.45;13.07;;;;;;;5.30;84.36;103591.75;3585345;39;20294;-65
2022/01/18 00:38:48;;;;;;;43.90;13.68;;;;;;;5.40;84.62;103612.22;3584737;39;20395;-65
2022/01/18 00:41:24;;;;;;;45.90;13.45;;;;;;;5.42;84.26;103609.56;3585305;40;20055;-65
2022/01/18 00:43:52;;;;;;;38.30;13.73;;;;;;;5.43;84.73;103608.69;3589746;40;20060;-65
2022/01/18 00:46:18;;;;;;;41.15;12.82;;;;;;;5.46;84.67;103606.94;3584548;39;20052;-65
2022/01/18 00:48:44;;;;;;;35.65;12.35;;;;;;;5.48;84.28;103614.91;3585387;40;20298;-65
2022/01/18 00:51:13;;;;;;;37.47;12.30;;;;;;;5.49;84.72;103627.41;3586361;40;20068;-65
2022/01/18 00:53:46;;;;;;;35.25;12.23;;;;;;;5.48;84.18;103620.25;3575919;40;20407;-65
2022/01/18 00:58:47;;;;;;;37.65;12.05;;;;;;;5.53;84.42;103619.41;3585519;39;20097;-65
2022/01/18 01:01:14;;;;;;;33.05;11.70;;;;;;;5.46;84.25;103611.38;3585853;39;20066;-66
2022/01/18 01:03:41;;;;;;;30.75;11.25;;;;;;;5.56;84.42;103608.75;3586716;39;20060;-65
2022/01/18 01:06:08;;;;;;;33.78;12.32;;;;;;;5.43;84.49;103590.03;3586521;40;20307;-65
2022/01/18 01:08:36;;;;;;;38.42;12.27;;;;;;;5.68;83.73;103623.03;3584965;39;20078;-66
2022/01/18 01:11:06;;;;;;;40.55;12.70;;;;;;;5.68;83.93;103623.91;3584853;39;20064;-65
2022/01/18 01:13:33;;;;;;;33.13;12.32;;;;;;;5.16;84.78;103527.66;3584694;39;20064;-65
2022/01/18 01:16:22;;;;;;;39.55;11.85;;;;;;;5.73;84.55;103619.47;3584194;39;20332;-65
2022/01/18 01:33:14;;;;;;;32.95;11.93;;;;;;;5.82;84.09;103614.16;3585202;39;20058;-65
2022/01/18 01:36:07;;;;;;;36.55;12.32;;;;;;;5.89;84.29;103617.72;3584287;40;20197;-65
2022/01/18 01:44:05;;;;;;;40.88;13.23;;;;;;;5.91;84.64;103604.41;3585164;39;20055;-65
2022/01/18 01:46:34;;;;;;;37.17;12.95;;;;;;;5.96;84.40;103614.25;3584539;40;20044;-65
2022/01/18 01:49:02;;;;;;;39.40;12.88;;;;;;;5.96;84.11;103608.91;3585961;40;20051;-65
2022/01/18 01:51:31;;;;;;;43.88;13.05;;;;;;;6.00;84.16;103620.47;3584589;40;20074;-66
2022/01/18 01:54:06;;;;;;;46.03;12.95;;;;;;;5.99;84.40;103616.00;3584271;40;20044;-66
2022/01/18 01:56:33;;;;;;;36.60;12.95;;;;;;;6.01;84.27;103616.91;3583953;40;20126;-65
2022/01/18 01:59:01;;;;;;;33.65;13.35;;;;;;;6.02;84.08;103624.03;3587221;39;20063;-65
2022/01/18 02:01:27;;;;;;;40.85;13.93;;;;;;;6.00;84.53;103620.47;3583917;39;20059;-65
2022/01/18 02:03:53;;;;;;;43.05;14.25;;;;;;;6.03;84.20;103617.81;3584932;40;20414;-65
2022/01/18 02:06:21;;;;;;;43.47;14.77;;;;;;;6.02;84.53;103619.56;3584047;39;20121;-65
2022/01/18 02:08:47;;;;;;;45.28;13.55;;;;;;;6.01;84.12;103620.47;3584511;40;20271;-65
2022/01/18 02:11:12;;;;;;;36.65;13.77;;;;;;;5.98;83.95;103624.91;3584321;40;20080;-65
2022/01/18 02:13:39;;;;;;;34.90;13.73;;;;;;;6.00;84.62;103628.50;3587585;40;20059;-65
2022/01/18 02:23:45;;;;;;;43.53;14.35;;;;;;;5.99;84.36;103618.69;3586354;39;20040;-65
2022/01/18 02:26:10;;;;;;;43.80;16.15;;;;;;;6.00;83.97;103623.16;3586005;39;20318;-65
2022/01/18 02:28:36;;;;;;;36.72;14.80;;;;;;;6.00;83.79;103628.50;3584219;39;20060;-65
2022/01/18 02:31:02;;;;;;;47.88;15.55;;;;;;;6.01;84.19;103616.91;3588013;39;20058;-65
2022/01/18 02:33:28;;;;;;;44.42;15.13;;;;;;;6.00;84.37;103615.13;3588597;39;20073;-65
2022/01/18 02:35:53;;;;;;;45.65;15.70;;;;;;;6.01;84.41;103611.56;3587106;39;20059;-65
2022/01/18 02:38:21;;;;;;;43.92;15.40;;;;;;;5.98;84.02;103611.56;3584165;39;20064;-65
2022/01/18 02:40:46;;;;;;;39.33;14.98;;;;;;;5.97;84.68;103605.34;3583997;39;20068;-65
2022/01/18 02:45:58;;;;;;;37.50;14.75;;;;;;;6.00;84.36;103604.47;3584701;39;20056;-65
2022/01/18 02:48:25;;;;;;;42.42;15.45;;;;;;;6.01;84.66;103600.88;3586604;39;20378;-65
2022/01/18 02:50:51;;;;;;;45.05;16.88;;;;;;;6.02;84.14;103603.53;3584084;39;20063;-65
2022/01/18 02:53:17;;;;;;;42.95;15.73;;;;;;;6.05;84.45;103605.34;3583431;39;20052;-65
2022/01/18 02:55:50;;;;;;;39.00;15.57;;;;;;;5.95;83.78;103596.44;3583638;40;20292;-66
2022/01/18 02:58:23;;;;;;;40.10;15.32;;;;;;;6.03;83.88;103610.69;3583744;40;20059;-65
2022/01/18 03:03:37;;;;;;;38.55;15.77;;;;;;;5.97;84.03;103593.78;3585910;40;20059;-63
2022/01/18 03:06:06;;;;;;;38.50;15.82;;;;;;;6.04;83.85;103600.91;3593768;40;20387;-60
2022/01/18 03:08:34;;;;;;;42.95;16.80;;;;;;;6.04;83.91;103596.44;3583497;40;20125;-61
2022/01/18 03:11:02;;;;;;;43.63;15.52;;;;;;;6.04;83.86;103603.56;3585790;40;20048;-62
2022/01/18 03:13:27;;;;;;;32.22;14.93;;;;;;;5.99;84.43;103599.97;3590302;40;20383;-62
2022/01/18 03:15:54;;;;;;;35.92;15.68;;;;;;;5.78;84.51;103567.00;3594279;40;20052;-62
2022/01/18 03:18:19;;;;;;;41.53;16.75;;;;;;;6.01;84.39;103608.91;3588585;40;20086;-62
2022/01/18 03:20:45;;;;;;;42.88;16.48;;;;;;;5.86;84.15;103580.34;3587284;40;20337;-62
2022/01/18 03:23:17;;;;;;;39.17;16.23;;;;;;;5.96;84.33;103597.31;3585295;40;20048;-61
2022/01/18 03:28:18;;;;;;;40.08;16.67;;;;;;;6.08;84.52;103621.38;3588920;40;20044;-62
2022/01/18 03:30:49;;;;;;;33.67;15.15;;;;;;;6.05;83.64;103608.00;3590414;40;20095;-62
2022/01/18 03:33:18;;;;;;;37.22;16.00;;;;;;;5.56;84.00;103538.47;3590348;40;20048;-62
2022/01/18 03:35:45;;;;;;;37.92;16.70;;;;;;;6.02;84.53;103613.34;3587623;40;20085;-62
2022/01/18 03:38:13;;;;;;;35.63;15.82;;;;;;;6.01;83.75;103616.91;3586865;40;20052;-61
2022/01/18 03:40:39;;;;;;;31.23;16.23;;;;;;;6.03;83.78;103610.69;3593992;40;20054;-61
2022/01/18 03:43:07;;;;;;;34.45;16.10;;;;;;;6.02;83.77;103610.66;3588337;40;20046;-62
2022/01/18 03:45:41;;;;;;;30.08;15.57;;;;;;;6.06;84.15;103617.81;3585698;40;20062;-62
2022/01/18 03:48:12;;;;;;;;;;;;;;;6.08;84.19;103612.47;3589801;40;20052;-61
2022/01/18 03:50:38;;;;;;;31.48;16.25;;;;;;;6.06;83.60;103617.81;3593680;40;20437;-62
2022/01/18 03:53:04;;;;;;;29.63;15.63;;;;;;;6.07;83.97;103624.94;3592228;40;20055;-62
2022/01/18 03:55:29;;;;;;;32.15;16.15;;;;;;;6.05;83.79;103627.59;3591960;40;20604;-62
2022/01/18 03:57:56;;;;;;;35.13;17.05;;;;;;;5.98;84.25;103622.25;3593915;40;20047;-62
2022/01/18 04:00:26;;;;;;;37.47;17.30;;;;;;;6.03;84.06;103634.72;3585383;40;20387;-61
2022/01/18 04:02:55;;;;;;;42.88;18.45;;;;;;;6.03;84.13;103632.06;3587935;40;20088;-63
2022/01/18 04:05:22;;;;;;;33.90;17.35;;;;;;;5.83;84.50;103596.34;3587084;40;20052;-62
2022/01/18 04:07:49;;;;;;;33.10;16.83;;;;;;;6.06;84.42;103631.19;3591078;40;20385;-63
2022/01/18 04:10:15;;;;;;;34.50;17.15;;;;;;;5.99;84.18;103624.00;3587645;40;20067;-61
2022/01/18 04:12:42;;;;;;;34.22;17.15;;;;;;;5.96;83.97;103618.66;3587046;40;20044;-63
2022/01/18 04:15:13;;;;;;;32.63;17.42;;;;;;;6.05;84.50;103634.72;3588019;40;20251;-63
2022/01/18 04:26:04;;;;;;;32.35;18.88;;;;;;;6.04;84.07;103638.28;3590516;40;20063;-63
2022/01/18 04:28:38;;;;;;;35.72;18.33;;;;;;;5.92;83.52;103623.06;3590318;40;20064;-63
2022/01/18 04:31:07;;;;;;;31.75;18.75;;;;;;;6.08;83.77;103655.19;3590649;40;20059;-62
2022/01/18 04:33:35;;;;;;;32.17;18.02;;;;;;;6.04;83.76;103649.84;3586140;40;20091;-62
2022/01/18 04:36:03;;;;;;;29.38;18.60;;;;;;;6.01;83.81;103631.16;3589841;40;20383;-62
2022/01/18 04:38:29;;;;;;;37.00;19.77;;;;;;;6.07;83.86;103648.97;3590644;40;20048;-62
2022/01/18 04:41:00;;;;;;;34.90;20.00;;;;;;;6.02;83.75;103640.03;3593844;40;20260;-63
2022/01/18 04:48:55;;;;;;;37.38;19.08;;;;;;;6.06;83.84;103647.19;3592711;40;20145;-63
2022/01/18 04:51:22;;;;;;;37.58;18.90;;;;;;;5.98;83.99;103633.81;3590193;40;20384;-63
2022/01/18 04:53:54;;;;;;;36.38;19.40;;;;;;;5.98;83.97;103635.59;3593496;40;20044;-63
2022/01/18 04:59:10;;;;;;;39.30;19.05;;;;;;;6.00;84.20;103641.84;3588200;40;20052;-64
2022/01/18 05:01:41;;;;;;;38.35;19.05;;;;;;;6.04;84.05;103649.84;3587474;40;20060;-63
2022/01/18 05:04:07;;;;;;;37.53;19.15;;;;;;;6.00;83.92;103639.16;3587541;40;20384;-63
2022/01/18 05:06:33;;;;;;;36.17;19.55;;;;;;;6.01;84.68;103643.63;3589855;40;20068;-63
2022/01/18 05:09:05;;;;;;;37.25;19.55;;;;;;;6.02;84.32;103650.72;3592512;40;20043;-63
2022/01/18 05:11:35;;;;;;;43.00;20.42;;;;;;;6.00;83.94;103647.19;3590775;40;20080;-63
2022/01/18 05:14:15;;;;;;;46.42;19.55;;;;;;;6.03;83.73;103658.75;3593599;40;20104;-63
2022/01/18 05:16:51;;;;;;;48.03;19.65;;;;;;;6.01;83.87;103656.97;3590593;40;20080;-62
2022/01/18 05:19:40;;;;;;;44.55;20.25;;;;;;;5.95;83.91;103654.28;3594492;40;20063;-65
2022/01/18 05:24:34;;;;;;;49.20;21.50;;;;;;;5.98;83.93;103659.63;3593042;40;20157;-64
2022/01/18 05:27:02;;;;;;;49.63;19.42;;;;;;;5.92;84.03;103640.88;3592660;40;20083;-64
2022/01/18 05:29:28;;;;;;;43.15;19.25;;;;;;;6.01;84.43;103659.63;3585021;40;20411;-65
2022/01/18 05:31:54;;;;;;;46.63;19.48;;;;;;;6.00;84.43;103655.19;3598094;39;20048;-64
2022/01/18 05:34:21;;;;;;;45.15;20.50;;;;;;;5.77;84.25;103615.94;3595482;40;20059;-64
2022/01/18 05:36:46;;;;;;;45.28;19.08;;;;;;;6.02;83.97;103661.41;3596936;40;20044;-64
2022/01/18 05:39:13;;;;;;;51.45;19.67;;;;;;;5.96;84.24;103656.03;3594274;40;20059;-64
2022/01/18 05:41:42;;;;;;;41.70;20.60;;;;;;;5.97;84.26;103660.53;3599321;39;20068;-65
2022/01/18 05:44:08;;;;;;;48.78;20.40;;;;;;;5.98;83.79;103659.63;3598355;40;20095;-64
2022/01/18 05:46:34;;;;;;;47.85;19.48;;;;;;;6.00;83.99;103657.88;3591487;40;20048;-65
2022/01/18 05:49:01;;;;;;;49.20;19.48;;;;;;;6.00;84.11;103655.19;3586670;40;20052;-65
2022/01/18 05:51:32;;;;;;;44.97;18.42;;;;;;;5.84;84.13;103618.63;3587742;40;20069;-64
2022/01/18 05:53:58;;;;;;;40.83;18.17;;;;;;;5.91;83.83;103631.97;3577154;40;20295;-64
2022/01/18 05:56:24;;;;;;;45.47;19.05;;;;;;;5.69;84.23;103599.00;3592750;40;20062;-65
2022/01/18 05:58:50;;;;;;;43.22;19.00;;;;;;;6.02;84.38;103656.06;3594672;40;20067;-63
2022/01/18 06:01:26;;;;;;;41.88;18.63;;;;;;;6.01;84.31;103660.53;3591607;40;20067;-64
2022/01/18 06:09:02;;;;;;;;;;;;;;;6.01;83.84;103648.94;3588321;40;20058;-64
2022/01/18 06:11:28;;;;;;;42.35;17.77;;;;;;;5.98;84.18;103647.16;3586978;40;19940;-64
2022/01/18 06:13:53;;;;;;;40.50;17.73;;;;;;;6.00;84.08;103656.06;3588520;40;20278;-64
2022/01/18 06:16:19;;;;;;;37.10;18.17;;;;;;;5.88;84.35;103631.97;3585893;40;20052;-68
2022/01/18 06:18:44;;;;;;;40.65;17.58;;;;;;;6.03;84.12;103655.19;3587092;40;20063;-63
2022/01/18 06:21:11;;;;;;;47.97;18.90;;;;;;;5.99;83.89;103645.38;3589285;40;20058;-64
2022/01/18 06:23:37;;;;;;;42.25;17.45;;;;;;;6.00;84.58;103648.06;3587244;40;20117;-64
2022/01/18 06:26:04;;;;;;;40.78;18.90;;;;;;;6.07;84.65;103659.66;3586794;40;20048;-65
2022/01/18 06:28:34;;;;;;;40.03;17.77;;;;;;;6.07;84.30;103651.66;3586276;40;20056;-64
2022/01/18 06:31:00;;;;;;;36.95;17.83;;;;;;;6.10;84.17;103651.66;3588072;40;20052;-64
2022/01/18 06:33:26;;;;;;;33.00;16.58;;;;;;;6.01;83.71;103638.28;3588057;40;20058;-64
2022/01/18 06:35:51;;;;;;;41.75;17.58;;;;;;;6.07;83.49;103643.63;3585857;40;20446;-65
2022/01/18 06:38:17;;;;;;;37.45;16.98;;;;;;;6.12;83.97;103652.56;3589065;40;20488;-64
2022/01/18 06:40:44;;;;;;;41.22;17.45;;;;;;;5.98;84.65;103623.13;3589408;40;20535;-64
2022/01/18 06:43:09;;;;;;;43.78;17.17;;;;;;;6.12;83.76;103651.63;3590592;40;20059;-64
2022/01/18 06:45:35;;;;;;;41.30;18.08;;;;;;;6.08;84.02;103644.50;3592579;40;20050;-64
2022/01/18 06:48:01;;;;;;;35.70;17.52;;;;;;;6.01;83.88;103633.81;3590941;40;20060;-63
2022/01/18 06:50:26;;;;;;;44.30;18.58;;;;;;;6.10;84.14;103648.09;3586769;40;20052;-63
2022/01/18 06:52:52;;;;;;;41.50;18.92;;;;;;;6.12;84.39;103657.91;3585937;40;20055;-64
2022/01/18 06:55:17;;;;;;;41.22;18.58;;;;;;;6.12;84.56;103651.63;3586159;40;20306;-64
2022/01/18 06:57:43;;;;;;;41.20;19.67;;;;;;;6.11;84.19;103656.09;3586392;40;20075;-64
2022/01/18 07:00:09;;;;;;;44.17;19.20;;;;;;;6.12;83.97;103662.31;3587230;40;20104;-64
2022/01/18 07:02:35;;;;;;;40.35;18.60;;;;;;;6.09;84.54;103663.22;3588487;40;20048;-64
2022/01/18 07:05:01;;;;;;;45.85;20.55;;;;;;;6.13;83.81;103669.47;3588886;40;20058;-66
2022/01/18 07:07:26;;;;;;;42.22;18.65;;;;;;;6.14;84.23;103664.13;3588407;40;20051;-63
2022/01/18 07:09:52;;;;;;;44.97;19.65;;;;;;;6.14;83.80;103672.13;3590435;40;20067;-64
2022/01/18 07:12:18;;;;;;;44.42;18.13;;;;;;;6.12;84.18;103673.91;3587090;40;20045;-64
2022/01/18 07:14:44;;;;;;;45.33;19.13;;;;;;;6.05;83.94;103666.75;3577405;40;20060;-65
2022/01/18 07:17:11;;;;;;;43.45;18.65;;;;;;;6.15;83.82;103676.59;3586240;40;20040;-64
2022/01/18 07:19:38;;;;;;;46.75;19.88;;;;;;;6.13;83.97;103673.03;3586859;40;20056;-64
2022/01/18 07:22:04;;;;;;;47.67;19.92;;;;;;;6.16;83.62;103675.69;3585869;40;20055;-64
2022/01/18 07:27:04;;;;;;;44.92;18.95;;;;;;;6.13;84.15;103669.47;3586355;40;20044;-66
2022/01/18 07:29:30;;;;;;;41.85;18.75;;;;;;;6.18;84.08;103686.38;3586198;40;20048;-64
2022/01/18 07:31:55;;;;;;;49.65;19.75;;;;;;;6.12;84.17;103679.25;3586935;40;20291;-64
2022/01/18 07:34:21;;;;;;;38.95;18.67;;;;;;;6.16;83.67;103678.38;3589086;40;20055;-64
2022/01/18 07:36:46;;;;;;;42.30;17.75;;;;;;;6.10;83.84;103673.00;3585724;40;20052;-65
2022/01/18 07:39:12;;;;;;;45.80;18.17;;;;;;;6.19;84.40;103683.72;3586860;40;20063;-65
2022/01/18 07:41:38;;;;;;;40.30;18.60;;;;;;;6.07;84.45;103670.34;3590052;40;20342;-64
2022/01/18 07:44:04;;;;;;;39.60;18.10;;;;;;;6.16;84.50;103681.03;3589446;40;20059;-64
2022/01/18 07:46:29;;;;;;;45.45;19.02;;;;;;;6.13;84.58;103681.03;3589146;40;20318;-64
2022/01/18 07:48:55;;;;;;;38.75;18.35;;;;;;;6.22;84.13;103702.44;3589279;40;20276;-64
2022/01/18 07:51:20;;;;;;;40.05;18.13;;;;;;;6.17;84.11;103688.16;3588609;40;20058;-64
2022/01/18 07:53:46;;;;;;;41.05;17.17;;;;;;;6.25;83.95;103699.75;3589247;40;20048;-66
2022/01/18 07:56:12;;;;;;;40.45;16.92;;;;;;;6.26;84.61;103695.31;3586898;40;20374;-65
2022/01/18 07:58:38;;;;;;;41.58;17.92;;;;;;;6.09;83.61;103665.91;3587880;40;20074;-65
2022/01/18 08:01:04;;;;;;;41.53;18.27;;;;;;;6.15;84.14;103673.00;3588559;40;20053;-64
2022/01/18 08:03:29;;;;;;;42.40;18.63;;;;;;;6.26;84.25;103689.97;3590191;40;20169;-64
2022/01/18 08:05:56;;;;;;;43.92;19.15;;;;;;;6.25;84.32;103697.09;3586124;40;20288;-65
2022/01/18 08:08:22;;;;;;;47.38;19.35;;;;;;;6.28;84.19;103697.09;3590906;40;20412;-64
2022/01/18 08:10:48;;;;;;;41.45;19.13;;;;;;;6.36;83.70;103713.13;3591385;40;20067;-67
2022/01/18 08:13:15;;;;;;;37.50;17.98;;;;;;;6.36;83.43;103705.13;3592881;40;20059;-62
2022/01/18 08:15:44;;;;;;;42.47;18.58;;;;;;;6.40;83.81;103706.91;3587938;40;20064;-63
2022/01/18 08:18:14;;;;;;;43.10;19.08;;;;;;;6.42;83.95;103705.13;3590389;40;20080;-62
2022/01/18 08:20:40;;;;;;;40.40;18.73;;;;;;;6.40;83.98;103695.31;3586588;40;20062;-62
2022/01/18 08:23:07;;;;;;;44.85;18.33;;;;;;;6.39;83.93;103699.78;3578024;40;20048;-63
2022/01/18 08:25:34;;;;;;;41.47;18.17;;;;;;;6.40;84.43;103698.88;3586704;40;20100;-62
2022/01/18 08:28:02;;;;;;;41.45;19.48;;;;;;;6.18;83.75;103667.69;3590438;40;20315;-64
2022/01/18 08:30:27;;;;;;;41.20;18.92;;;;;;;6.38;83.73;103697.13;3586550;40;20123;-63
2022/01/18 08:32:55;;;;;;;51.72;20.45;;;;;;;6.41;84.11;103702.47;3586883;40;20052;-63
2022/01/18 08:35:22;;;;;;;53.53;21.35;;;;;;;6.22;83.71;103666.81;3589193;40;20052;-63
2022/01/18 08:37:47;;;;;;;51.83;21.35;;;;;;;6.39;83.99;103683.75;3589449;40;20415;-63
2022/01/18 08:40:14;;;;;;;46.47;20.83;;;;;;;6.41;83.31;103687.34;3587514;40;20054;-64
2022/01/18 08:42:40;;;;;;;49.10;20.25;;;;;;;6.47;83.55;103697.09;3589988;40;20115;-63
2022/01/18 08:45:07;;;;;;;52.85;20.80;;;;;;;6.49;83.27;103693.56;3587555;40;20060;-63
2022/01/18 08:47:33;;;;;;;48.15;21.98;;;;;;;6.49;83.09;103690.88;3589255;40;20059;-63
2022/01/18 08:49:59;;;;;;;56.03;21.27;;;;;;;6.50;83.49;103690.03;3586460;40;20061;-63
2022/01/18 08:52:25;;;;;;;46.85;19.42;;;;;;;6.56;83.92;103699.78;3589268;40;20064;-63
2022/01/18 08:54:50;;;;;;;45.45;19.50;;;;;;;6.58;83.12;103703.38;3587905;40;20049;-63
2022/01/18 08:57:16;;;;;;;47.40;19.92;;;;;;;6.59;83.65;103701.59;3586713;40;20051;-63
2022/01/18 08:59:44;;;;;;;50.90;19.80;;;;;;;6.60;83.87;103703.41;3582499;40;20414;-63
2022/01/18 09:02:11;;;;;;;42.63;19.02;;;;;;;6.67;83.69;103700.72;3645792;22;20062;-65
2022/01/18 09:04:38;;;;;;;44.10;19.60;;;;;;;6.66;83.59;103692.69;3589397;40;21800;-65
2022/01/18 09:07:08;;;;;;;42.80;19.60;;;;;;;6.77;83.62;103701.59;3584473;40;20048;-65
2022/01/18 09:09:41;;;;;;;49.17;19.70;;;;;;;6.71;83.54;103686.44;3585882;40;20051;-65
2022/01/18 09:12:11;;;;;;;41.42;18.35;;;;;;;6.81;83.64;103695.38;3575966;40;20040;-67
2022/01/18 09:14:38;;;;;;;43.63;18.33;;;;;;;6.90;84.35;103707.84;3578884;40;20359;-65
2022/01/18 09:17:04;;;;;;;40.40;18.63;;;;;;;6.89;83.42;103696.25;3571138;40;20085;-65
2022/01/18 09:19:30;;;;;;;47.28;20.23;;;;;;;6.95;83.82;103706.97;3581371;40;20044;-65
2022/01/18 09:21:57;;;;;;;40.88;18.10;;;;;;;7.01;83.71;103706.06;3580155;40;20072;-64
2022/01/18 09:24:23;;;;;;;38.83;19.02;;;;;;;7.05;83.55;103707.84;3582548;40;20113;-65
2022/01/18 09:26:49;;;;;;;41.65;18.73;;;;;;;7.09;83.38;103712.28;3582392;40;20095;-65
2022/01/18 09:29:15;;;;;;;39.22;18.90;;;;;;;7.07;83.60;103695.38;3584087;40;20052;-67
2022/01/18 09:31:40;;;;;;;37.85;19.50;;;;;;;7.17;83.44;103713.19;3571192;40;20211;-65
2022/01/18 09:34:06;;;;;;;44.10;18.20;;;;;;;7.02;83.11;103678.44;3582830;40;20387;-65
2022/01/18 09:36:32;;;;;;;42.25;18.63;;;;;;;7.26;83.42;103716.72;3583085;40;20056;-66
2022/01/18 09:38:59;;;;;;;37.33;19.63;;;;;;;7.26;83.35;103719.41;3584232;40;20052;-66
2022/01/18 09:41:29;;;;;;;35.83;18.50;;;;;;;7.27;83.29;103713.19;3583201;40;20572;-67
2022/01/18 09:43:57;;;;;;;35.55;18.38;;;;;;;7.32;83.27;103716.72;3576018;40;20048;-65
2022/01/18 09:46:25;;;;;;;39.28;18.27;;;;;;;7.33;83.60;103718.53;3580812;40;20379;-66
2022/01/18 09:48:56;;;;;;;36.97;18.90;;;;;;;7.38;83.03;103722.06;3584128;40;20415;-65
2022/01/18 09:51:24;;;;;;;37.80;18.02;;;;;;;7.38;82.81;103725.63;3581808;40;20059;-65
2022/01/18 09:53:50;;;;;;;35.58;18.30;;;;;;;7.36;83.01;103714.06;3583905;40;20087;-66
2022/01/18 09:56:17;;;;;;;38.33;18.42;;;;;;;7.30;82.98;103700.69;3583620;40;20055;-66
2022/01/18 09:58:45;;;;;;;34.13;18.48;;;;;;;7.44;82.39;103727.41;3582232;40;20812;-66
2022/01/18 10:01:11;;;;;;;37.70;18.73;;;;;;;7.29;82.55;103698.88;3583042;40;20056;-67
2022/01/18 10:03:39;;;;;;;38.25;19.17;;;;;;;7.24;82.80;103691.78;3583364;40;20050;-66
2022/01/18 10:06:07;;;;;;;35.60;18.42;;;;;;;7.52;83.04;103733.66;3583275;40;20079;-67
2022/01/18 10:08:35;;;;;;;38.85;19.65;;;;;;;7.58;82.42;103733.63;3582839;40;20121;-66
2022/01/18 10:11:10;;;;;;;40.95;20.25;;;;;;;7.49;83.12;103700.66;3583116;40;20557;-66
2022/01/18 10:13:37;;;;;;;44.25;20.67;;;;;;;7.71;82.18;103730.88;3580846;40;20044;-66
2022/01/18 10:16:14;;;;;;;40.38;20.92;;;;;;;7.77;81.81;103726.44;3583057;40;20125;-66
2022/01/18 10:18:48;;;;;;;39.70;20.02;;;;;;;7.82;82.47;103726.41;3583138;40;20063;-66
2022/01/18 10:21:34;;;;;;;39.10;19.55;;;;;;;7.90;81.97;103730.84;3583449;40;20393;-67
2022/01/18 10:24:25;;;;;;;37.47;19.58;;;;;;;8.01;82.01;103730.78;3583446;40;20064;-68
2022/01/18 10:26:54;;;;;;;38.65;19.70;;;;;;;8.12;82.95;103722.72;3582516;40;20048;-67
2022/01/18 10:29:29;;;;;;;41.70;21.33;;;;;;;8.22;82.75;103724.44;3582420;40;20133;-67
2022/01/18 10:32:00;;;;;;;38.30;19.45;;;;;;;8.37;82.66;103719.00;3574196;40;20117;-67
2022/01/18 10:37:12;;;;;;;36.92;18.23;;;;;;;8.85;81.04;103689.19;3583018;40;20055;-66
2022/01/18 10:40:02;;;;;;;33.05;16.75;;;;;;;9.40;78.65;103715.47;3582980;40;20119;-67
2022/01/18 10:42:51;;;;;;;34.88;15.57;;;;;;;9.78;77.35;103711.47;3572906;40;20146;-67
2022/01/18 10:45:31;;;;;;;30.38;14.32;;;;;;;10.06;76.05;103711.13;3582244;40;20501;-68
2022/01/18 10:48:02;;;;;;;28.33;14.82;;;;;;;10.25;75.04;103707.28;3580467;40;20067;-67
2022/01/18 10:50:39;;;;;;;23.80;11.85;;;;;;;10.44;73.18;103698.06;3582382;40;20376;-67
2022/01/18 10:53:22;;;;;;;25.95;12.75;;;;;;;10.36;72.08;103651.56;3583001;40;20409;-67
2022/01/18 10:56:11;;;;;;;27.15;13.10;;;;;;;10.73;71.28;103691.31;3579532;40;20056;-67
2022/01/18 10:58:48;;;;;;;27.65;12.23;;;;;;;10.91;70.54;103684.75;3582029;40;20068;-65
2022/01/18 11:01:21;;;;;;;26.45;12.18;;;;;;;11.08;69.84;103685.34;3583200;40;20063;-66
2022/01/18 11:04:15;;;;;;;27.45;12.18;;;;;;;11.23;69.06;103689.56;3573490;40;20327;-69
2022/01/18 11:06:57;;;;;;;25.90;12.50;;;;;;;11.36;69.04;103685.72;3579647;40;20146;-67
2022/01/18 11:09:23;;;;;;;28.13;13.25;;;;;;;11.52;68.08;103680.91;3582243;40;20060;-67
2022/01/18 11:11:49;;;;;;;32.95;14.43;;;;;;;11.63;68.63;103677.97;3580675;40;20056;-67
2022/01/18 11:14:20;;;;;;;27.77;13.65;;;;;;;11.77;66.86;103675.91;3579998;40;20056;-67
2022/01/18 11:16:52;;;;;;;30.00;14.80;;;;;;;11.99;66.25;103675.47;3580691;40;20052;-65
2022/01/18 11:21:55;;;;;;;23.90;13.27;;;;;;;11.90;65.15;103678.38;3582489;40;20060;-66
2022/01/18 11:24:22;;;;;;;28.85;12.63;;;;;;;11.59;65.10;103681.66;3583875;40;20078;-66
2022/01/18 11:26:48;;;;;;;29.35;11.95;;;;;;;11.34;65.39;103674.06;3582270;40;20044;-66
2022/01/18 11:29:19;;;;;;;25.25;11.07;;;;;;;11.36;65.82;103669.56;3581677;40;20057;-67
2022/01/18 11:31:52;;;;;;;27.08;11.43;;;;;;;11.26;66.50;103672.44;3580464;40;20052;-66
2022/01/18 11:34:45;;;;;;;27.77;11.73;;;;;;;11.46;66.94;103666.69;3584296;40;20133;-66
2022/01/18 11:37:42;;;;;;;32.40;13.32;;;;;;;11.75;66.59;103674.16;3563206;40;20083;-67
2022/01/18 11:40:13;;;;;;;24.58;12.57;;;;;;;11.72;65.75;103660.75;3579035;40;20060;-67
2022/01/18 11:42:52;;;;;;;30.45;13.52;;;;;;;11.50;66.53;103658.50;3580846;40;20052;-67
2022/01/18 11:45:24;;;;;;;27.25;13.35;;;;;;;11.53;66.47;103660.25;3580115;40;20044;-67
2022/01/18 11:48:18;;;;;;;28.10;13.70;;;;;;;11.37;66.01;103659.66;3582767;40;20051;-67
2022/01/18 11:50:59;;;;;;;31.13;12.70;;;;;;;11.48;66.11;103652.28;3584163;40;20048;-67
2022/01/18 11:54:16;;;;;;;28.48;12.32;;;;;;;11.45;65.10;103652.31;3581431;40;20084;-65
2022/01/18 11:56:42;;;;;;;29.75;13.07;;;;;;;11.40;65.37;103648.81;3579416;40;20078;-67
2022/01/18 11:59:14;;;;;;;27.98;12.57;;;;;;;11.29;66.24;103646.34;3580879;40;20056;-65
2022/01/18 12:01:49;;;;;;;32.67;13.10;;;;;;;11.18;67.08;103663.63;3582369;40;20512;-65
2022/01/18 12:04:37;;;;;;;33.70;13.95;;;;;;;11.08;66.89;103660.22;3584267;40;20048;-65
2022/01/18 12:07:03;;;;;;;32.17;13.57;;;;;;;10.98;68.34;103650.53;3580565;40;20049;-65
2022/01/18 12:09:47;;;;;;;33.33;13.82;;;;;;;10.71;67.36;103619.63;3583119;40;20272;-66
2022/01/18 12:12:41;;;;;;;34.67;13.75;;;;;;;10.72;67.04;103643.81;3584139;40;20366;-66
2022/01/18 12:15:16;;;;;;;31.20;12.93;;;;;;;10.60;67.47;103636.84;3584521;40;20315;-66
2022/01/18 12:17:53;;;;;;;35.22;14.13;;;;;;;10.53;68.66;103631.56;3580253;40;20056;-66
2022/01/18 12:20:44;;;;;;;34.63;14.25;;;;;;;10.90;67.85;103634.50;3584112;40;20051;-66
2022/01/18 12:23:33;;;;;;;26.30;12.07;;;;;;;11.55;66.61;103647.63;3582430;40;20375;-65
2022/01/18 12:26:27;;;;;;;30.50;11.68;;;;;;;12.01;63.98;103641.25;3582674;40;20053;-66
2022/01/18 12:29:21;;;;;;;26.88;11.98;;;;;;;12.37;61.90;103615.25;3571736;40;20086;-66
2022/01/18 12:34:30;;;;;;;25.20;10.52;;;;;;;13.14;59.08;103627.63;3582644;40;20110;-66
2022/01/18 12:37:08;;;;;;;27.58;11.82;;;;;;;12.94;60.38;103627.25;3581192;40;20125;-66
2022/01/18 12:45:22;;;;;;;29.20;12.02;;;;;;;11.95;62.51;103630.63;3580976;40;20307;-66
2022/01/18 12:47:59;;;;;;;30.45;11.25;;;;;;;11.66;62.03;103618.63;3580179;40;20306;-66
2022/01/18 12:50:39;;;;;;;25.55;11.25;;;;;;;11.39;63.51;103621.00;3579724;40;20049;-65
2022/01/18 12:53:15;;;;;;;30.38;11.05;;;;;;;11.16;65.10;103615.19;3582324;40;20048;-67
2022/01/18 12:56:02;;;;;;;26.15;10.43;;;;;;;11.02;64.39;103610.06;3583836;40;20418;-67
2022/01/18 12:58:31;;;;;;;26.90;11.23;;;;;;;10.93;65.48;103602.16;3580301;40;20307;-67
2022/01/18 13:01:27;;;;;;;29.52;11.57;;;;;;;10.83;65.07;103603.25;3583491;40;20790;-67